Time;durP1;ratioP1;P1;durP2;ratioP2;P2;SDS_P1;SDS_P2;PMS_P1;PMS_P2;Temp;Humidity;BMP_temperature;BMP_pressure;BME280_temperature;BME280_humidity;BME280_pressure;Samples;Min_cycle;Max_cycle;Signal;HPM_P1;HPM_P2
2022/05/29 00:01:10;;;;;;;7.10;1.30;;;;;;;10.22;62.21;96312.75;5020299;28;20037;-65
2022/05/29 00:03:36;;;;;;;5.47;1.45;;;;;;;10.23;62.42;96316.28;5042348;28;20424;-63
2022/05/29 00:06:05;;;;;;;3.05;1.30;;;;;;;10.24;62.13;96304.16;5036179;28;20098;-61
2022/05/29 00:08:33;;;;;;;5.80;1.75;;;;;;;10.25;61.81;96301.06;5041198;28;20045;-66
2022/05/29 00:11:00;;;;;;;3.72;1.60;;;;;;;10.30;61.42;96308.94;5017815;28;20098;-63
2022/05/29 00:13:26;;;;;;;4.82;1.50;;;;;;;10.28;61.47;96299.50;5026257;28;20041;-66
2022/05/29 00:15:52;;;;;;;6.55;1.63;;;;;;;10.22;62.07;96293.59;5040942;28;20045;-67
2022/05/29 00:18:18;;;;;;;7.25;1.63;;;;;;;10.19;62.03;96294.34;5035723;28;20106;-66
2022/05/29 00:20:49;;;;;;;6.00;1.75;;;;;;;10.07;62.95;96298.13;5032431;28;20090;-66
2022/05/29 00:23:15;;;;;;;3.65;1.48;;;;;;;10.03;63.49;96299.22;5018919;28;20052;-65
2022/05/29 00:25:44;;;;;;;5.45;1.52;;;;;;;9.93;64.11;96295.22;5040646;28;20200;-65
2022/05/29 00:28:10;;;;;;;6.88;1.20;;;;;;;9.89;63.99;96292.44;5026933;28;20045;-64
2022/05/29 00:30:35;;;;;;;2.05;1.13;;;;;;;9.85;64.94;96288.88;5041686;28;20044;-65
2022/05/29 00:33:01;;;;;;;3.88;2.08;;;;;;;9.83;64.37;96283.00;5041581;28;20502;-66
2022/05/29 00:35:27;;;;;;;3.75;1.50;;;;;;;9.84;64.68;96290.03;5017216;28;20045;-65
2022/05/29 00:37:52;;;;;;;6.13;1.88;;;;;;;9.83;64.46;96293.94;5044868;28;20079;-66
2022/05/29 00:40:29;;;;;;;3.67;1.67;;;;;;;9.82;64.37;96283.34;5048599;28;20528;-65
2022/05/29 00:42:54;;;;;;;3.50;1.60;;;;;;;9.88;63.96;96273.66;5024147;28;20037;-66
2022/05/29 00:45:22;;;;;;;3.80;1.60;;;;;;;9.87;63.09;96275.59;5035447;28;20075;-65
2022/05/29 00:47:48;;;;;;;4.32;1.50;;;;;;;9.87;63.48;96275.59;5040859;28;20041;-64
2022/05/29 00:50:19;;;;;;;6.88;1.70;;;;;;;9.89;62.59;96265.06;5034055;28;20033;-64
2022/05/29 00:52:45;;;;;;;8.65;1.98;;;;;;;9.89;62.45;96265.06;5059083;28;20040;-64
2022/05/29 00:55:15;;;;;;;5.90;1.88;;;;;;;9.88;61.98;96255.28;5037396;28;20041;-63
2022/05/29 00:57:45;;;;;;;5.57;1.23;;;;;;;9.97;61.16;96257.72;5039367;28;20044;-65
2022/05/29 01:00:25;;;;;;;7.38;1.52;;;;;;;10.03;60.15;96253.53;5035518;28;20069;-67
2022/05/29 01:02:52;;;;;;;3.63;1.50;;;;;;;9.95;60.49;96244.44;5040562;28;20037;-66
2022/05/29 01:05:21;;;;;;;8.82;1.60;;;;;;;10.04;59.89;96233.19;5035910;28;20394;-66
2022/05/29 01:07:53;;;;;;;4.68;1.42;;;;;;;10.02;60.29;96230.03;5040821;28;20094;-66
2022/05/29 01:10:21;;;;;;;4.43;1.52;;;;;;;9.96;60.78;96226.09;5036291;28;20037;-65
2022/05/29 01:13:05;;;;;;;5.72;1.52;;;;;;;9.85;61.83;96225.97;5039702;28;20052;-64
2022/05/29 01:15:40;;;;;;;3.78;1.27;;;;;;;9.76;62.13;96211.78;5037013;28;20059;-65
2022/05/29 01:18:30;;;;;;;4.07;1.35;;;;;;;9.82;62.18;96212.25;5024322;28;20069;-65
2022/05/29 01:21:20;;;;;;;6.85;1.83;;;;;;;9.80;62.73;96203.63;5020256;28;20037;-65
2022/05/29 01:23:52;;;;;;;2.70;1.30;;;;;;;9.67;63.21;96205.81;5024346;28;20494;-65
2022/05/29 01:26:28;;;;;;;6.03;1.75;;;;;;;9.63;63.34;96203.03;5033663;28;20071;-65
2022/05/29 01:29:00;;;;;;;3.63;1.50;;;;;;;9.54;64.03;96206.06;5022646;28;20045;-65
2022/05/29 01:31:41;;;;;;;2.33;1.55;;;;;;;9.55;63.95;96193.19;5025232;28;20129;-65
2022/05/29 01:34:20;;;;;;;3.42;1.60;;;;;;;9.51;63.95;96182.19;5010469;28;20555;-66
2022/05/29 01:37:00;;;;;;;4.82;1.70;;;;;;;9.53;63.84;96181.84;5040643;28;20052;-66
2022/05/29 01:39:47;;;;;;;2.40;1.30;;;;;;;9.47;64.12;96184.13;5036081;28;20037;-65
2022/05/29 01:42:26;;;;;;;4.60;2.25;;;;;;;9.42;64.52;96175.44;5035852;28;20049;-65
2022/05/29 01:45:05;;;;;;;4.35;1.60;;;;;;;9.44;64.32;96170.41;5038427;28;20033;-65
2022/05/29 01:47:57;;;;;;;4.68;1.80;;;;;;;9.47;63.66;96169.63;5034956;28;20550;-65
2022/05/29 01:50:27;;;;;;;6.47;1.50;;;;;;;9.59;62.30;96160.41;5015775;28;20856;-64
2022/05/29 01:52:59;;;;;;;3.72;1.20;;;;;;;9.50;63.05;96161.47;5022630;28;20122;-64
2022/05/29 01:55:33;;;;;;;4.97;1.20;;;;;;;9.53;62.27;96155.28;5034974;28;20072;-64
2022/05/29 01:58:04;;;;;;;2.75;1.30;;;;;;;9.65;61.01;96151.50;5041493;28;20103;-65
2022/05/29 02:00:31;;;;;;;3.30;1.30;;;;;;;9.70;61.06;96145.69;5035887;28;20386;-64
2022/05/29 02:03:03;;;;;;;5.25;1.30;;;;;;;9.73;60.34;96144.16;5034260;28;20474;-66
2022/05/29 02:05:34;;;;;;;7.40;2.05;;;;;;;9.78;59.88;96130.16;5021158;28;20127;-67
2022/05/29 02:08:24;;;;;;;3.45;1.30;;;;;;;9.79;59.61;96128.97;5040573;28;20037;-66
2022/05/29 02:11:01;;;;;;;4.82;1.50;;;;;;;9.77;59.46;96123.88;5049851;28;20041;-66
2022/05/29 02:13:40;;;;;;;4.70;1.45;;;;;;;9.79;59.07;96112.56;5048858;28;20036;-64
2022/05/29 02:16:11;;;;;;;5.65;1.63;;;;;;;9.81;59.33;96107.50;5031309;28;20051;-66
2022/05/29 02:18:45;;;;;;;6.20;1.30;;;;;;;9.80;59.29;96102.44;5040892;28;20059;-65
2022/05/29 02:21:25;;;;;;;4.35;1.40;;;;;;;9.87;58.63;96108.75;5038734;28;20516;-63
2022/05/29 02:23:54;;;;;;;2.03;1.10;;;;;;;9.90;58.49;96102.53;5025622;28;20056;-66
2022/05/29 02:26:25;;;;;;;5.63;1.38;;;;;;;9.84;58.45;96090.34;5038172;28;20049;-66
2022/05/29 02:28:56;;;;;;;2.70;1.20;;;;;;;9.80;59.09;96094.22;5044639;28;20040;-67
2022/05/29 02:31:27;;;;;;;3.30;1.30;;;;;;;9.76;59.75;96092.25;5030963;28;20315;-65
2022/05/29 02:34:01;;;;;;;4.28;1.20;;;;;;;9.76;59.17;96094.97;5043813;28;20482;-66
2022/05/29 02:36:38;;;;;;;2.95;1.20;;;;;;;9.74;59.71;96091.03;5038316;28;20072;-66
2022/05/29 02:39:22;;;;;;;3.45;1.25;;;;;;;9.72;59.89;96085.97;5040417;28;20581;-63
2022/05/29 02:42:09;;;;;;;3.60;1.25;;;;;;;9.75;59.54;96079.72;5044450;28;20130;-63
2022/05/29 02:45:12;;;;;;;2.38;1.50;;;;;;;9.76;59.68;96072.31;5042002;28;20517;-64
2022/05/29 02:48:02;;;;;;;6.78;1.50;;;;;;;9.78;59.37;96078.19;5039978;28;20075;-66
2022/05/29 02:50:36;;;;;;;;;;;;;;;9.77;59.85;96077.38;5040688;28;20099;-67
2022/05/29 02:53:12;;;;;;;4.18;1.42;;;;;;;9.79;59.30;96074.28;5023693;28;19917;-63
2022/05/29 02:55:40;;;;;;;3.90;1.30;;;;;;;9.80;59.50;96083.28;5042625;28;20049;-67
2022/05/29 02:58:13;;;;;;;2.38;1.10;;;;;;;9.88;57.68;96077.50;5038684;28;20044;-64
2022/05/29 03:00:47;;;;;;;4.57;1.35;;;;;;;9.84;58.75;96075.91;5052586;28;20060;-65
2022/05/29 03:03:27;;;;;;;5.32;1.20;;;;;;;9.81;59.48;96073.91;5061247;28;20033;-64
2022/05/29 03:06:02;;;;;;;5.13;1.10;;;;;;;9.81;58.56;96077.41;5043442;28;20496;-65
2022/05/29 03:08:41;;;;;;;5.05;1.45;;;;;;;9.75;60.34;96073.47;5020084;28;20492;-66
2022/05/29 03:11:15;;;;;;;3.53;1.30;;;;;;;9.74;60.06;96078.16;5039055;28;20517;-64
2022/05/29 03:13:49;;;;;;;6.35;1.52;;;;;;;9.70;60.22;96076.53;5042591;28;20056;-64
2022/05/29 03:16:32;;;;;;;5.82;1.45;;;;;;;9.75;60.35;96074.25;5035661;28;20124;-64
2022/05/29 03:19:14;;;;;;;5.32;1.80;;;;;;;9.96;59.90;96075.63;5043472;28;20051;-66
2022/05/29 03:22:12;;;;;;;3.63;1.42;;;;;;;9.97;59.69;96081.88;5038745;28;20029;-65
2022/05/29 03:24:56;;;;;;;3.83;1.80;;;;;;;10.07;59.60;96076.50;5043539;28;20040;-66
2022/05/29 03:27:35;;;;;;;7.28;1.55;;;;;;;9.99;59.82;96063.91;5038509;28;20247;-66
2022/05/29 03:30:07;;;;;;;3.38;1.45;;;;;;;9.87;60.30;96075.94;5047530;28;20037;-64
2022/05/29 03:32:35;;;;;;;3.00;1.08;;;;;;;9.93;60.84;96071.69;5060790;28;20055;-64
2022/05/29 03:35:19;;;;;;;3.88;1.17;;;;;;;9.91;61.30;96068.53;5056800;28;20049;-66
2022/05/29 03:37:45;;;;;;;5.63;1.30;;;;;;;9.91;61.37;96074.00;5045098;28;20076;-65
2022/05/29 03:40:11;;;;;;;5.85;1.27;;;;;;;9.86;61.56;96074.34;5048564;28;20079;-65
2022/05/29 03:42:37;;;;;;;4.90;1.40;;;;;;;9.84;62.33;96078.63;5025189;28;20097;-65
2022/05/29 03:45:03;;;;;;;6.82;1.70;;;;;;;9.70;61.93;96074.59;5039673;28;20521;-62
2022/05/29 03:47:29;;;;;;;3.45;1.60;;;;;;;9.55;63.27;96076.41;5043510;28;20037;-65
2022/05/29 03:49:54;;;;;;;3.58;1.45;;;;;;;9.42;63.84;96071.56;5063760;28;20076;-64
2022/05/29 03:52:20;;;;;;;4.45;1.38;;;;;;;9.28;65.05;96070.25;5051910;28;20057;-65
2022/05/29 03:54:46;;;;;;;3.03;1.23;;;;;;;9.09;66.64;96073.16;5046966;28;20037;-65
2022/05/29 03:57:11;;;;;;;5.57;1.40;;;;;;;9.03;67.80;96074.66;5038718;28;20133;-64
2022/05/29 03:59:36;;;;;;;6.18;1.60;;;;;;;9.02;67.86;96067.59;5038689;28;20075;-63
2022/05/29 04:02:02;;;;;;;5.78;1.70;;;;;;;9.11;67.83;96070.81;5036406;28;20116;-65
2022/05/29 04:04:28;;;;;;;8.77;1.70;;;;;;;9.13;68.60;96077.50;5039658;28;20045;-65
2022/05/29 04:06:53;;;;;;;5.60;1.63;;;;;;;9.23;68.41;96073.31;5042001;28;20037;-64
2022/05/29 04:12:07;;;;;;;5.10;1.67;;;;;;;9.57;67.13;96071.34;5040342;28;20041;-62
2022/05/29 04:14:34;;;;;;;4.20;1.65;;;;;;;9.61;65.75;96068.63;5036862;28;20060;-65
2022/05/29 04:17:00;;;;;;;4.78;1.80;;;;;;;9.59;66.84;96075.66;5033348;28;20045;-65
2022/05/29 04:19:27;;;;;;;4.88;1.67;;;;;;;9.90;66.25;96077.91;5044356;28;20045;-65
2022/05/29 04:21:52;;;;;;;3.75;1.40;;;;;;;9.83;65.66;96066.09;5032613;28;20047;-65
2022/05/29 04:24:20;;;;;;;5.75;2.03;;;;;;;9.69;66.75;96072.25;5045118;28;20052;-66
2022/05/29 04:26:49;;;;;;;3.65;1.60;;;;;;;9.60;67.23;96066.28;5049448;28;20048;-64
2022/05/29 04:29:16;;;;;;;5.20;2.10;;;;;;;9.47;67.78;96069.31;5047989;28;20049;-64
2022/05/29 04:32:59;;;;;;;3.70;1.70;;;;;;;9.62;68.30;96067.50;5042766;28;20041;-64
2022/05/29 04:34:28;;;;;;;4.68;1.45;;;;;;;9.74;66.74;96072.69;5043445;28;20056;-64
2022/05/29 04:36:53;;;;;;;4.88;2.13;;;;;;;9.83;67.26;96075.13;5052153;28;20045;-66
2022/05/29 04:39:20;;;;;;;9.52;2.03;;;;;;;10.25;65.84;96079.38;5046040;28;20045;-65
2022/05/29 04:41:45;;;;;;;5.68;1.65;;;;;;;10.38;65.75;96070.88;5052504;28;20040;-67
2022/05/29 04:44:11;;;;;;;5.82;1.67;;;;;;;10.59;64.68;96073.78;5048105;28;20159;-65
2022/05/29 04:46:36;;;;;;;5.68;1.85;;;;;;;10.94;63.59;96077.09;5050905;28;20043;-65
2022/05/29 04:49:02;;;;;;;7.25;2.17;;;;;;;11.07;63.04;96068.16;5034127;28;20033;-66
2022/05/29 04:51:28;;;;;;;2.80;1.40;;;;;;;11.15;63.10;96076.41;5040391;28;20190;-66
2022/05/29 04:53:53;;;;;;;9.63;1.73;;;;;;;10.99;65.13;96079.47;5052677;28;20041;-65
2022/05/29 04:56:19;;;;;;;3.53;1.30;;;;;;;11.24;63.74;96079.56;5046163;28;20124;-65
2022/05/29 04:58:44;;;;;;;3.10;1.65;;;;;;;11.33;63.07;96066.28;5034426;28;20049;-63
2022/05/29 05:01:10;;;;;;;4.57;1.40;;;;;;;11.36;62.81;96076.50;5043419;28;20037;-66
2022/05/29 05:03:35;;;;;;;9.27;1.58;;;;;;;11.50;63.57;96075.72;5050499;28;20033;-65
2022/05/29 05:06:01;;;;;;;9.65;1.73;;;;;;;11.66;62.43;96078.13;5051085;28;20041;-66
2022/05/29 05:08:27;;;;;;;3.65;1.10;;;;;;;11.68;62.48;96067.53;5050511;28;20045;-64
2022/05/29 05:10:53;;;;;;;2.55;1.33;;;;;;;11.73;61.83;96071.88;5025240;28;20462;-65
2022/05/29 05:13:18;;;;;;;5.15;1.67;;;;;;;11.95;60.53;96075.44;5018261;28;20179;-65
2022/05/29 05:15:44;;;;;;;3.40;1.35;;;;;;;12.03;60.97;96074.28;5020257;28;20501;-63
2022/05/29 05:18:09;;;;;;;3.90;1.30;;;;;;;11.92;62.04;96071.53;5036117;28;20045;-64
2022/05/29 05:20:37;;;;;;;3.83;1.40;;;;;;;11.84;60.05;96069.91;5040276;28;20575;-65
2022/05/29 05:23:03;;;;;;;5.78;1.42;;;;;;;11.75;60.84;96078.53;5021028;28;20037;-64
2022/05/29 05:25:28;;;;;;;6.45;1.50;;;;;;;11.80;62.26;96075.41;5020080;28;20044;-66
2022/05/29 05:27:54;;;;;;;7.40;1.50;;;;;;;12.01;63.10;96080.16;5040615;28;20059;-65
2022/05/29 05:30:20;;;;;;;4.63;1.80;;;;;;;12.13;62.45;96080.94;5027689;28;20403;-64
2022/05/29 05:32:45;;;;;;;3.67;1.05;;;;;;;12.51;60.24;96076.59;5038991;28;20045;-65
2022/05/29 05:35:11;;;;;;;5.20;1.35;;;;;;;12.60;60.17;96071.50;5035987;28;20045;-66
2022/05/29 05:37:38;;;;;;;5.50;1.65;;;;;;;12.67;59.69;96078.16;5040067;28;20048;-65
2022/05/29 05:40:07;;;;;;;3.60;1.30;;;;;;;12.12;60.73;96073.88;5037750;28;20093;-63
2022/05/29 05:42:33;;;;;;;9.50;2.05;;;;;;;11.88;61.62;96067.94;5040697;28;20124;-68
2022/05/29 05:44:58;;;;;;;6.68;1.45;;;;;;;11.08;64.07;96074.41;5029785;28;20133;-65
2022/05/29 05:47:24;;;;;;;3.97;1.83;;;;;;;11.65;64.62;96076.56;5034376;28;20041;-66
2022/05/29 05:49:50;;;;;;;3.40;1.30;;;;;;;11.97;62.07;96086.81;5039574;28;20048;-66
2022/05/29 05:52:17;;;;;;;5.30;1.70;;;;;;;12.57;59.26;96082.50;5035384;28;20442;-65
2022/05/29 05:54:43;;;;;;;6.20;1.40;;;;;;;12.05;60.15;96091.94;5041729;28;20076;-67
2022/05/29 05:57:09;;;;;;;6.03;1.60;;;;;;;12.19;60.60;96080.16;5053731;23;20064;-68
2022/05/29 05:59:36;;;;;;;2.90;1.40;;;;;;;12.35;62.09;96079.78;5023817;28;20676;-67
2022/05/29 06:02:02;;;;;;;9.32;1.70;;;;;;;13.39;60.25;96084.25;5040200;28;20041;-68
2022/05/29 06:04:28;;;;;;;3.97;1.30;;;;;;;14.25;56.14;96085.69;5049889;28;20040;-69
2022/05/29 06:06:54;;;;;;;4.47;1.45;;;;;;;13.29;55.69;96085.84;5056497;28;20036;-68
2022/05/29 06:09:21;;;;;;;3.30;1.40;;;;;;;12.12;58.33;96088.41;5050665;28;20037;-68
2022/05/29 06:11:47;;;;;;;4.90;1.65;;;;;;;12.72;55.49;96083.25;5054834;28;20037;-68
2022/05/29 06:14:12;;;;;;;4.07;1.30;;;;;;;13.44;56.54;96074.81;5037632;28;20048;-68
2022/05/29 06:16:38;;;;;;;8.80;1.55;;;;;;;12.62;59.01;96082.09;5039655;28;20136;-68
2022/05/29 06:19:06;;;;;;;3.65;1.50;;;;;;;13.12;58.10;96081.97;5038202;28;20036;-67
2022/05/29 06:21:35;;;;;;;3.67;1.50;;;;;;;13.36;55.77;96083.09;5040262;28;20041;-67
2022/05/29 06:24:00;;;;;;;5.27;1.43;;;;;;;13.44;55.12;96083.06;5041173;28;20493;-66
2022/05/29 06:26:26;;;;;;;5.13;1.65;;;;;;;13.29;57.72;96083.09;5035452;28;20228;-68
2022/05/29 06:28:51;;;;;;;2.55;1.10;;;;;;;13.80;56.84;96080.88;5055537;28;20102;-68
2022/05/29 06:31:17;;;;;;;3.35;1.20;;;;;;;13.87;55.81;96080.06;5038097;28;20040;-68
2022/05/29 06:33:42;;;;;;;5.50;1.35;;;;;;;15.85;51.38;96076.88;5062324;28;20481;-68
2022/05/29 06:36:13;;;;;;;6.70;1.17;;;;;;;16.85;47.87;96078.47;5036519;28;20068;-68
2022/05/29 06:38:41;;;;;;;5.70;1.63;;;;;;;14.63;51.03;96083.03;5044200;28;20091;-67
2022/05/29 06:41:09;;;;;;;6.15;2.22;;;;;;;13.73;54.92;96078.94;5036268;28;20071;-67
2022/05/29 06:43:35;;;;;;;4.10;1.30;;;;;;;15.88;49.07;96082.75;5039889;28;20417;-67
2022/05/29 06:46:02;;;;;;;7.00;2.03;;;;;;;15.07;50.10;96084.13;5039804;28;20512;-67
2022/05/29 06:48:27;;;;;;;5.38;1.40;;;;;;;17.19;44.63;96076.22;5032195;28;20045;-67
2022/05/29 06:50:53;;;;;;;5.53;1.55;;;;;;;17.43;45.65;96078.13;5040168;28;20106;-69
2022/05/29 06:53:20;;;;;;;2.70;0.90;;;;;;;18.87;40.66;96075.63;5035783;28;20037;-68
2022/05/29 06:55:51;;;;;;;4.57;1.20;;;;;;;18.97;40.22;96087.66;5040698;28;20160;-68
2022/05/29 06:58:17;;;;;;;5.05;1.25;;;;;;;18.90;40.56;96086.63;5042308;28;20056;-68
2022/05/29 07:08:54;;;;;;;7.57;2.05;;;;;;;14.26;52.88;96104.56;5045531;28;20354;-66
2022/05/29 07:11:24;;;;;;;6.75;1.70;;;;;;;15.52;49.88;96108.06;5042931;28;20111;-69
2022/05/29 07:13:50;;;;;;;;;;;;;;;14.27;52.15;96105.34;5048698;28;20048;-69
2022/05/29 07:16:15;;;;;;;7.00;1.90;;;;;;;14.56;51.54;96102.34;5046535;28;19924;-68
2022/05/29 07:18:42;;;;;;;4.00;1.60;;;;;;;15.46;49.96;96099.44;5053791;28;20071;-69
2022/05/29 07:21:07;;;;;;;4.75;1.63;;;;;;;15.34;52.56;96105.50;5048763;28;20040;-66
2022/05/29 07:23:35;;;;;;;6.95;2.03;;;;;;;16.60;48.62;96105.31;5046235;28;20106;-67
2022/05/29 07:26:01;;;;;;;9.32;1.60;;;;;;;17.57;45.85;96095.25;5042729;28;20037;-66
2022/05/29 07:28:26;;;;;;;5.53;1.20;;;;;;;19.08;41.53;96104.78;5037680;28;20044;-68
2022/05/29 07:30:54;;;;;;;4.28;1.25;;;;;;;19.82;38.86;96100.38;5043987;28;20098;-67
2022/05/29 07:33:21;;;;;;;3.20;1.20;;;;;;;19.10;39.86;96102.34;5039783;28;20063;-68
2022/05/29 07:35:46;;;;;;;4.22;1.20;;;;;;;18.90;40.55;96096.94;5040914;28;20437;-68
2022/05/29 07:38:12;;;;;;;2.78;1.02;;;;;;;17.84;42.37;96105.34;5031733;28;20068;-68
2022/05/29 07:40:38;;;;;;;7.47;1.42;;;;;;;18.66;40.50;96097.13;5029388;28;20059;-68
2022/05/29 07:43:20;;;;;;;5.15;1.15;;;;;;;20.27;38.47;96102.16;5039900;28;20060;-67
2022/05/29 07:45:52;;;;;;;4.57;1.30;;;;;;;21.12;36.04;96100.59;5042354;28;20044;-67
2022/05/29 07:48:20;;;;;;;4.57;1.33;;;;;;;21.47;34.70;96095.00;5039197;28;20041;-68
2022/05/29 07:50:46;;;;;;;8.70;1.70;;;;;;;19.73;37.92;96108.56;5044508;28;20067;-68
2022/05/29 07:53:11;;;;;;;6.13;1.73;;;;;;;16.51;44.84;96102.31;5038146;28;20549;-67
2022/05/29 07:55:38;;;;;;;5.45;1.15;;;;;;;18.71;40.91;96104.91;5048062;28;20060;-67
2022/05/29 07:58:06;;;;;;;6.60;1.50;;;;;;;17.85;42.32;96101.41;5039939;28;20037;-67
2022/05/29 08:00:33;;;;;;;5.00;1.20;;;;;;;18.10;43.25;96108.38;5044297;28;20048;-68
2022/05/29 08:02:58;;;;;;;4.10;1.38;;;;;;;18.24;41.64;96108.06;5043158;28;20036;-68
2022/05/29 08:05:24;;;;;;;4.32;1.45;;;;;;;18.26;40.79;96110.41;5039570;28;20581;-68
2022/05/29 08:07:51;;;;;;;4.63;1.52;;;;;;;18.24;42.21;96112.78;5058425;28;20060;-68
2022/05/29 08:10:21;;;;;;;5.47;1.20;;;;;;;18.99;39.77;96104.66;5059360;28;20131;-69
2022/05/29 08:12:47;;;;;;;3.22;1.00;;;;;;;18.81;39.30;96107.84;5065171;28;20473;-69
2022/05/29 08:15:13;;;;;;;5.18;1.40;;;;;;;19.58;39.92;96108.19;5058425;28;20041;-68
2022/05/29 08:17:39;;;;;;;4.93;1.23;;;;;;;16.78;43.61;96116.06;5064223;28;20040;-69
2022/05/29 08:20:06;;;;;;;5.97;1.52;;;;;;;16.00;43.65;96118.88;5060345;28;20505;-67
2022/05/29 08:22:32;;;;;;;4.28;1.27;;;;;;;16.48;45.11;96103.16;5050240;28;20605;-69
2022/05/29 08:30:43;;;;;;;3.50;1.38;;;;;;;15.66;46.52;96103.16;5040132;28;20041;-68
2022/05/29 08:33:23;;;;;;;4.88;1.30;;;;;;;16.95;46.08;96099.63;5037626;28;20089;-68
2022/05/29 08:36:00;;;;;;;;;;;;;;;17.89;44.44;96098.53;5043427;28;20068;-68
2022/05/29 08:38:27;;;;;;;6.90;1.45;;;;;;;17.97;43.22;96102.72;5041963;28;19962;-68
2022/05/29 08:40:57;;;;;;;4.43;1.48;;;;;;;18.64;42.38;96098.78;5014799;28;20561;-68
2022/05/29 08:43:33;;;;;;;6.80;1.38;;;;;;;18.01;40.56;96100.66;5044164;28;20072;-68
2022/05/29 08:46:07;;;;;;;4.53;1.60;;;;;;;17.65;42.30;96104.16;5028469;28;20048;-68
2022/05/29 08:48:33;;;;;;;3.28;1.40;;;;;;;16.69;43.93;96102.03;5023768;28;20099;-69
2022/05/29 08:51:16;;;;;;;5.93;1.40;;;;;;;17.25;43.44;96098.66;5025145;28;20540;-69
2022/05/29 08:54:12;;;;;;;6.85;1.67;;;;;;;18.34;40.45;96095.13;5041765;28;20397;-69
2022/05/29 08:57:15;;;;;;;5.68;1.45;;;;;;;18.64;39.52;96090.47;5041486;28;20068;-68
2022/05/29 08:59:57;;;;;;;2.88;1.10;;;;;;;19.63;38.39;96091.75;5041168;28;20041;-69
2022/05/29 09:03:11;;;;;;;9.00;3.70;;;;;;;17.42;42.19;96085.66;5038680;28;20055;-69
2022/05/29 09:05:55;;;;;;;4.82;1.40;;;;;;;16.34;46.38;96089.56;5042412;28;20094;-69
2022/05/29 09:08:27;;;;;;;4.43;1.90;;;;;;;17.60;43.85;96085.28;5033138;28;20037;-68
2022/05/29 09:11:01;;;;;;;4.00;1.40;;;;;;;18.76;39.99;96091.72;5043276;28;20052;-68
2022/05/29 09:13:43;;;;;;;5.45;1.42;;;;;;;18.72;41.56;96078.72;5039330;28;20389;-69
2022/05/29 09:16:15;;;;;;;5.47;1.17;;;;;;;19.42;39.58;96078.50;5035615;28;20128;-68
2022/05/29 09:18:47;;;;;;;7.30;1.55;;;;;;;19.88;38.48;96079.16;5041186;28;20048;-68
2022/05/29 09:21:18;;;;;;;4.47;1.40;;;;;;;19.96;37.24;96083.28;5038799;28;20113;-67
2022/05/29 09:24:13;;;;;;;3.97;1.40;;;;;;;19.98;36.78;96078.03;5046673;28;20053;-67
2022/05/29 09:26:39;;;;;;;5.35;1.13;;;;;;;19.99;36.44;96078.84;5046297;28;20097;-68
2022/05/29 09:29:06;;;;;;;3.65;0.98;;;;;;;20.55;36.05;96069.88;5040674;28;20037;-68
2022/05/29 09:31:32;;;;;;;4.20;1.05;;;;;;;20.58;34.18;96059.84;5041636;28;20041;-69
2022/05/29 09:33:59;;;;;;;4.22;0.95;;;;;;;19.08;35.97;96063.16;5041859;28;20090;-68
2022/05/29 09:36:55;;;;;;;3.90;1.23;;;;;;;18.11;39.39;96054.50;5017748;28;20084;-68
2022/05/29 09:39:28;;;;;;;5.53;1.85;;;;;;;19.70;35.79;96059.44;5041476;28;20096;-69
2022/05/29 09:42:19;;;;;;;4.68;1.33;;;;;;;19.70;34.96;96059.44;5056243;28;20052;-69
2022/05/29 09:45:15;;;;;;;5.50;1.60;;;;;;;18.11;38.93;96047.00;5051633;28;20055;-69
2022/05/29 09:50:51;;;;;;;5.00;1.33;;;;;;;20.49;35.45;96034.72;5036495;28;20179;-67
2022/05/29 09:53:31;;;;;;;3.30;1.30;;;;;;;19.16;35.93;96033.22;5017529;28;20041;-68
2022/05/29 09:56:06;;;;;;;3.50;1.10;;;;;;;18.36;38.14;96037.25;5032959;28;20098;-68
2022/05/29 09:58:52;;;;;;;3.72;0.98;;;;;;;20.00;36.03;96033.13;5041760;28;20103;-68
2022/05/29 10:01:40;;;;;;;9.90;2.25;;;;;;;20.85;34.35;96028.78;5036230;28;20061;-68
2022/05/29 10:04:15;;;;;;;4.45;1.13;;;;;;;20.28;34.13;96025.13;5036292;28;20048;-69
2022/05/29 10:06:44;;;;;;;2.80;0.73;;;;;;;20.39;33.80;96036.66;5041050;28;20056;-68
2022/05/29 10:09:23;;;;;;;4.47;0.90;;;;;;;20.33;32.86;96027.31;5039453;28;20078;-69
2022/05/29 10:11:59;;;;;;;;;;;;;;;19.95;34.07;96031.72;5053679;28;20037;-68
2022/05/29 10:14:24;;;;;;;5.55;0.95;;;;;;;20.43;31.30;96032.53;5038144;28;20617;-67
2022/05/29 10:16:51;;;;;;;2.92;1.00;;;;;;;20.43;32.25;96028.97;5041420;28;20547;-67
2022/05/29 10:19:31;;;;;;;2.47;1.20;;;;;;;20.13;35.85;96028.38;5036881;28;20117;-68
2022/05/29 10:21:57;;;;;;;2.03;1.10;;;;;;;19.99;36.54;96031.59;5042565;28;20564;-67
2022/05/29 10:24:28;;;;;;;5.05;1.30;;;;;;;19.68;37.25;96032.13;5036939;28;21091;-67
2022/05/29 10:26:57;;;;;;;2.95;1.25;;;;;;;19.59;37.46;96031.97;5023369;28;20037;-67
2022/05/29 10:29:28;;;;;;;5.70;1.40;;;;;;;19.78;37.58;96044.91;5037390;28;20130;-68
2022/05/29 10:31:54;;;;;;;4.90;1.40;;;;;;;19.20;37.62;96081.09;5047109;28;20164;-68
2022/05/29 10:34:22;;;;;;;1.88;0.82;;;;;;;17.12;42.87;96076.34;5039084;28;20041;-68
2022/05/29 10:36:48;;;;;;;6.47;1.20;;;;;;;16.07;45.38;96084.06;5034725;28;20045;-67
2022/05/29 10:39:24;;;;;;;5.05;1.08;;;;;;;16.07;47.00;96084.84;5039744;28;20493;-68
2022/05/29 10:41:51;;;;;;;4.00;1.00;;;;;;;15.22;48.50;96091.06;5045915;28;20073;-68
2022/05/29 10:44:44;;;;;;;5.40;1.15;;;;;;;15.00;49.29;96092.47;5041242;28;20033;-67
2022/05/29 10:47:41;;;;;;;3.35;1.10;;;;;;;14.64;49.96;96096.41;5037852;28;20037;-68
2022/05/29 10:50:28;;;;;;;4.00;1.40;;;;;;;14.87;51.19;96090.28;5030643;28;20072;-67
2022/05/29 10:53:04;;;;;;;4.57;1.00;;;;;;;15.04;50.36;96099.53;5046554;28;20128;-68
2022/05/29 10:55:41;;;;;;;4.70;0.90;;;;;;;14.85;49.96;96097.38;5044033;28;20521;-68
2022/05/29 10:58:32;;;;;;;2.10;1.15;;;;;;;15.20;49.80;96084.41;5041466;28;20389;-67
2022/05/29 11:04:30;;;;;;;3.55;1.10;;;;;;;16.14;47.39;96086.72;5038795;28;20401;-68
2022/05/29 11:07:25;;;;;;;2.97;0.80;;;;;;;15.82;48.77;96094.25;5045207;28;20124;-70
2022/05/29 11:10:17;;;;;;;4.75;1.00;;;;;;;15.53;49.33;96095.81;5020468;28;20100;-69
2022/05/29 11:12:51;;;;;;;2.28;0.90;;;;;;;15.47;49.30;96084.47;5033222;28;20550;-67
2022/05/29 11:15:28;;;;;;;2.58;0.80;;;;;;;15.24;50.43;96088.69;5058135;28;20033;-67
2022/05/29 11:18:20;;;;;;;2.63;0.90;;;;;;;15.09;49.04;96084.53;5053620;28;20056;-67
2022/05/29 11:20:56;;;;;;;2.80;1.10;;;;;;;15.19;49.69;96080.84;5046550;28;20086;-68
2022/05/29 11:23:28;;;;;;;3.70;0.90;;;;;;;15.29;48.97;96082.72;5039525;28;20896;-68
2022/05/29 11:26:17;;;;;;;1.50;0.80;;;;;;;15.24;47.26;96077.63;5041705;28;20053;-68
2022/05/29 11:29:07;;;;;;;3.25;0.93;;;;;;;15.05;47.44;96072.75;5045852;28;20056;-69
2022/05/29 11:31:38;;;;;;;1.73;0.85;;;;;;;14.88;48.45;96069.00;5045683;28;20098;-68
2022/05/29 11:34:25;;;;;;;3.42;1.00;;;;;;;14.84;49.65;96057.22;5040792;28;20048;-69
2022/05/29 11:36:58;;;;;;;0.82;0.60;;;;;;;14.51;49.78;96060.28;5043803;28;20166;-68
2022/05/29 11:39:29;;;;;;;2.70;1.20;;;;;;;14.77;48.86;96062.81;5037394;28;20040;-69
2022/05/29 11:42:10;;;;;;;2.28;0.70;;;;;;;14.46;49.48;96060.72;5024771;28;20045;-68
2022/05/29 11:44:43;;;;;;;2.30;1.00;;;;;;;14.62;49.97;96057.44;5043702;28;20063;-68
2022/05/29 11:53:06;;;;;;;1.83;0.95;;;;;;;15.18;48.15;96068.25;5044967;28;20106;-69
2022/05/29 11:55:39;;;;;;;3.20;1.00;;;;;;;15.15;48.88;96068.31;5049295;28;20048;-67
2022/05/29 11:58:34;;;;;;;2.20;0.90;;;;;;;15.40;48.84;96066.03;5046834;28;20537;-67
2022/05/29 12:01:06;;;;;;;1.27;0.90;;;;;;;15.58;50.25;96062.25;5042445;28;20033;-68
2022/05/29 12:03:44;;;;;;;3.00;1.20;;;;;;;15.53;49.13;96068.22;5054441;28;20056;-68
2022/05/29 12:06:31;;;;;;;1.42;0.80;;;;;;;14.90;51.05;96070.13;5044869;28;20059;-68
2022/05/29 12:09:18;;;;;;;6.32;0.75;;;;;;;14.84;51.61;96065.50;5044414;28;20064;-68
2022/05/29 12:11:53;;;;;;;2.28;0.98;;;;;;;14.36;52.84;96061.59;5042962;28;20048;-68
2022/05/29 12:14:37;;;;;;;4.30;1.02;;;;;;;14.42;53.93;96072.94;5040337;28;20041;-68
2022/05/29 12:17:26;;;;;;;1.80;0.70;;;;;;;14.43;54.55;96075.28;5024266;28;20195;-69
2022/05/29 12:20:01;;;;;;;1.00;0.60;;;;;;;15.27;54.74;96076.81;5034475;28;20041;-68
2022/05/29 12:22:33;;;;;;;2.30;0.80;;;;;;;15.66;50.95;96085.78;5041857;28;20044;-69
2022/05/29 12:24:59;;;;;;;2.35;1.00;;;;;;;16.04;52.19;96097.53;5048334;28;20397;-69
2022/05/29 12:27:28;;;;;;;3.72;0.90;;;;;;;15.12;55.48;96100.25;5041163;28;20052;-69
2022/05/29 12:30:17;;;;;;;2.30;1.05;;;;;;;14.22;60.21;96100.25;5044511;28;20122;-69